createdAt,value
2023-01-19T00:00:51.459Z,21.0700
2023-01-19T00:01:53.868Z,21.0100
2023-01-19T00:02:54.133Z,20.9600
2023-01-19T00:03:56.511Z,20.9900
2023-01-19T00:04:58.866Z,21.1100
2023-01-19T00:05:59.129Z,21.0500
2023-01-19T00:07:01.506Z,20.9800
2023-01-19T00:08:03.816Z,20.9200
2023-01-19T00:09:04.022Z,21.0300
2023-01-19T00:10:06.383Z,21.0100
2023-01-19T00:11:08.728Z,21.0000
2023-01-19T00:12:09.018Z,20.9700
2023-01-19T00:13:11.275Z,21.0800
2023-01-19T00:14:13.587Z,21.1200
2023-01-19T00:16:37.725Z,21.1500
2023-01-19T00:17:40.003Z,21.2900
2023-01-19T00:18:42.281Z,21.3100
2023-01-19T00:19:42.453Z,21.3600
2023-01-19T00:20:44.803Z,21.4400
2023-01-19T00:21:47.144Z,21.4500
2023-01-19T00:22:49.620Z,21.3700
2023-01-19T00:23:51.851Z,21.3000
2023-01-19T00:24:52.084Z,21.2800
2023-01-19T00:25:54.421Z,21.3000
2023-01-19T00:26:56.721Z,21.3600
2023-01-19T00:28:01.437Z,21.4500
2023-01-19T00:29:01.410Z,21.4700
2023-01-19T00:30:03.690Z,21.4200
2023-01-19T00:31:03.946Z,21.3200
2023-01-19T00:32:06.151Z,21.3400
2023-01-19T00:33:08.536Z,21.3400
2023-01-19T00:34:10.839Z,21.3300
2023-01-19T00:35:13.185Z,21.2800
2023-01-19T00:36:13.386Z,21.2200
2023-01-19T00:37:15.714Z,21.2200
2023-01-19T00:38:18.119Z,21.3300
2023-01-19T00:39:20.412Z,21.3700
2023-01-19T00:40:22.756Z,21.3700
2023-01-19T00:41:22.955Z,21.3300
2023-01-19T00:42:25.307Z,21.4200
2023-01-19T00:43:27.683Z,21.4900
2023-01-19T00:44:29.968Z,21.5300
2023-01-19T00:45:32.397Z,21.4400
2023-01-19T00:46:32.574Z,21.3300
2023-01-19T00:47:34.960Z,21.3400
2023-01-19T00:48:37.361Z,21.3700
2023-01-19T00:49:39.665Z,21.3400
2023-01-19T00:50:42.044Z,21.2700
2023-01-19T00:51:42.302Z,21.2300
2023-01-19T00:52:44.676Z,21.1900
2023-01-19T00:53:47.097Z,21.2500
2023-01-19T00:54:47.276Z,21.2000
2023-01-19T00:55:49.701Z,21.1600
2023-01-19T00:56:52.062Z,21.2800
2023-01-19T00:57:54.463Z,21.3900
2023-01-19T00:58:54.834Z,21.3800
2023-01-19T00:59:57.103Z,21.3500
2023-01-19T01:00:59.544Z,21.3300
2023-01-19T01:02:02.127Z,21.3000
2023-01-19T01:03:04.955Z,21.2600
2023-01-19T01:04:04.646Z,21.3200
2023-01-19T01:05:06.906Z,21.3900
2023-01-19T01:06:09.282Z,21.4000
2023-01-19T01:07:11.694Z,21.4200
2023-01-19T01:08:11.894Z,21.4700
2023-01-19T01:09:14.310Z,21.5000
2023-01-19T01:10:16.632Z,21.4700
2023-01-19T01:11:19.025Z,21.3800
2023-01-19T01:12:19.153Z,21.3200
2023-01-19T01:13:23.558Z,21.3600
2023-01-19T01:14:23.924Z,21.3000
2023-01-19T01:15:26.217Z,21.3800
2023-01-19T01:16:28.558Z,21.4200
2023-01-19T01:17:28.699Z,21.3700
2023-01-19T01:18:31.056Z,21.2500
2023-01-19T01:19:33.587Z,21.3500
2023-01-19T01:20:35.859Z,21.3400
2023-01-19T01:21:36.126Z,21.2500
2023-01-19T01:22:38.525Z,21.3200
2023-01-19T01:23:40.948Z,21.3500
2023-01-19T01:24:43.361Z,21.2800
2023-01-19T01:25:43.614Z,21.2300
2023-01-19T01:26:46.017Z,21.1600
2023-01-19T01:27:48.363Z,21.1100
2023-01-19T01:28:50.723Z,21.1300
2023-01-19T01:29:53.102Z,21.2100
2023-01-19T01:30:53.254Z,21.2000
2023-01-19T01:31:55.631Z,21.1400
2023-01-19T01:32:58.187Z,21.1200
2023-01-19T01:34:00.241Z,21.1000
2023-01-19T01:35:00.493Z,21.1300
2023-01-19T01:36:02.829Z,21.2000
2023-01-19T01:37:05.160Z,21.3100
2023-01-19T01:38:07.492Z,21.2900
2023-01-19T01:39:09.794Z,21.2400
2023-01-19T01:40:10.057Z,21.2000
2023-01-19T01:41:12.375Z,21.1500
2023-01-19T01:42:14.763Z,21.2600
2023-01-19T01:43:17.085Z,21.3300
2023-01-19T01:44:19.445Z,21.2400
2023-01-19T01:45:58.562Z,21.1100
2023-01-19T01:47:00.659Z,21.2300
2023-01-19T01:48:02.960Z,21.2700
2023-01-19T01:49:05.256Z,21.3200
2023-01-19T01:50:07.576Z,21.3500
2023-01-19T01:51:07.877Z,21.3100
2023-01-19T01:52:10.040Z,21.3100
2023-01-19T01:53:12.579Z,21.3200
2023-01-19T01:54:14.766Z,21.2700
2023-01-19T01:55:17.086Z,21.3300
2023-01-19T01:56:19.443Z,21.3300
2023-01-19T01:57:19.652Z,21.3700
2023-01-19T01:58:22.018Z,21.2700
2023-01-19T01:59:24.405Z,21.2300
2023-01-19T02:00:26.779Z,21.3000
2023-01-19T02:01:29.204Z,21.3900
2023-01-19T02:02:29.351Z,21.3000
2023-01-19T02:03:31.784Z,21.1600
2023-01-19T02:04:34.086Z,21.2000
2023-01-19T02:05:36.385Z,21.2800
2023-01-19T02:06:36.548Z,21.2700
2023-01-19T02:07:38.761Z,21.3000
2023-01-19T02:08:41.053Z,21.3200
2023-01-19T02:09:43.314Z,21.3800
2023-01-19T02:10:45.632Z,21.3800
2023-01-19T02:11:47.934Z,21.4500
2023-01-19T02:12:50.192Z,21.4100
2023-01-19T02:13:52.405Z,21.4100
2023-01-19T02:14:52.503Z,21.4000
2023-01-19T02:15:54.763Z,21.4500
2023-01-19T02:16:57.088Z,21.3700
2023-01-19T02:17:59.330Z,21.2800
2023-01-19T02:19:01.682Z,21.1900
2023-01-19T02:20:04.021Z,21.2900
2023-01-19T02:21:04.227Z,21.2800
2023-01-19T02:22:06.544Z,21.2200
2023-01-19T02:23:08.846Z,21.2500
2023-01-19T02:24:11.162Z,21.2700
2023-01-19T02:25:13.484Z,21.3000
2023-01-19T02:26:15.804Z,21.2800
2023-01-19T02:27:16.026Z,21.2500
2023-01-19T02:28:18.319Z,21.1900
2023-01-19T02:29:20.586Z,21.2100
2023-01-19T02:30:22.984Z,21.3200
2023-01-19T02:31:25.221Z,21.2700
2023-01-19T02:32:27.604Z,21.3700
2023-01-19T02:33:27.756Z,21.3900
2023-01-19T02:34:30.070Z,21.2200
2023-01-19T02:35:32.442Z,21.1800
2023-01-19T02:36:34.774Z,21.2200
2023-01-19T02:37:37.188Z,21.2700
2023-01-19T02:38:37.353Z,21.3300
2023-01-19T02:39:39.731Z,21.3100
2023-01-19T02:40:42.043Z,21.2800
2023-01-19T02:41:44.397Z,21.1500
2023-01-19T02:42:46.772Z,21.2100
2023-01-19T02:43:46.977Z,21.2100
2023-01-19T02:44:49.303Z,21.3000
2023-01-19T02:45:51.696Z,21.3700
2023-01-19T02:46:54.006Z,21.4100
2023-01-19T02:47:56.419Z,21.3600
2023-01-19T02:48:56.607Z,21.1800
2023-01-19T02:49:58.973Z,21.2100
2023-01-19T02:51:01.290Z,21.3300
2023-01-19T02:52:03.597Z,21.2200
2023-01-19T02:53:03.807Z,21.2000
2023-01-19T02:54:06.108Z,21.1400
2023-01-19T02:55:08.438Z,21.0900
2023-01-19T02:56:10.787Z,21.1800
2023-01-19T02:57:13.081Z,21.1800
2023-01-19T02:58:13.315Z,21.1600
2023-01-19T02:59:15.638Z,21.1800
2023-01-19T03:00:17.876Z,21.1500
2023-01-19T03:01:20.209Z,21.1900
2023-01-19T03:02:22.609Z,21.2300
2023-01-19T03:03:24.798Z,21.2400
2023-01-19T03:04:24.987Z,21.2000
2023-01-19T03:05:27.307Z,21.0900
2023-01-19T03:06:29.652Z,21.0000
2023-01-19T03:07:31.959Z,21.0700
2023-01-19T03:08:34.332Z,21.1500
2023-01-19T03:09:36.621Z,21.1800
2023-01-19T03:10:36.812Z,21.1300
2023-01-19T03:11:39.155Z,21.2400
2023-01-19T03:12:41.480Z,21.2900
2023-01-19T03:13:43.848Z,21.2000
2023-01-19T03:14:46.114Z,21.2300
2023-01-19T03:15:48.479Z,21.2700
2023-01-19T03:16:48.867Z,21.1700
2023-01-19T03:17:50.947Z,21.1400
2023-01-19T03:18:53.332Z,21.2400
2023-01-19T03:19:55.593Z,21.2000
2023-01-19T03:20:57.847Z,21.1000
2023-01-19T03:21:58.030Z,21.0900
2023-01-19T03:22:58.740Z,21.1300
2023-01-19T03:24:00.585Z,21.1100
2023-01-19T03:25:02.930Z,21.1000
2023-01-19T03:26:05.265Z,21.1400
2023-01-19T03:27:07.592Z,21.1400
2023-01-19T03:28:07.799Z,21.1000
2023-01-19T03:29:10.286Z,21.0900
2023-01-19T03:30:12.574Z,21.1200
2023-01-19T03:31:14.975Z,21.1900
2023-01-19T03:32:15.158Z,21.1400
2023-01-19T03:33:17.523Z,21.1300
2023-01-19T03:34:19.847Z,21.2500
2023-01-19T03:35:22.183Z,21.3100
2023-01-19T03:36:22.408Z,21.2200
2023-01-19T03:37:24.828Z,21.1200
2023-01-19T03:38:27.223Z,21.1100
2023-01-19T03:39:29.683Z,21.0700
2023-01-19T03:41:38.811Z,21.0300
2023-01-19T03:42:41.066Z,20.9900
2023-01-19T03:43:43.361Z,21.0200
2023-01-19T03:44:43.562Z,21.0400
2023-01-19T03:45:45.894Z,21.0700
2023-01-19T03:46:48.208Z,21.1100
2023-01-19T03:47:50.570Z,21.0800
2023-01-19T03:49:46.824Z,20.9600
2023-01-19T03:50:49.048Z,21.1000
2023-01-19T03:51:49.233Z,21.1700
2023-01-19T03:52:51.539Z,21.1200
2023-01-19T03:53:53.880Z,21.1100
2023-01-19T03:54:56.203Z,21.0600
2023-01-19T03:55:58.527Z,21.0700
2023-01-19T03:57:00.897Z,21.0800
2023-01-19T03:58:01.122Z,20.9900
2023-01-19T03:59:03.471Z,21.0400
2023-01-19T04:00:05.856Z,20.9900
2023-01-19T04:01:08.315Z,21.0600
2023-01-19T04:02:10.612Z,21.0600
2023-01-19T04:03:10.794Z,20.9700
2023-01-19T04:04:13.028Z,20.9700
2023-01-19T04:05:15.385Z,21.0100
2023-01-19T04:06:17.709Z,21.0600
2023-01-19T04:07:20.057Z,21.1500
2023-01-19T04:08:20.260Z,21.2100
2023-01-19T04:09:22.551Z,21.2000
2023-01-19T04:10:24.859Z,21.2200
2023-01-19T04:11:27.077Z,21.2400
2023-01-19T04:12:29.343Z,21.3000
2023-01-19T04:13:31.581Z,21.3100
2023-01-19T04:14:33.845Z,21.1300
2023-01-19T04:15:36.204Z,21.0700
2023-01-19T04:16:36.317Z,21.0000
2023-01-19T04:17:38.507Z,20.9700
2023-01-19T04:18:40.796Z,21.0700
2023-01-19T04:19:43.078Z,21.1400
2023-01-19T04:20:44.253Z,21.1300
2023-01-19T04:21:46.505Z,21.0600
2023-01-19T04:22:48.781Z,21.0100
2023-01-19T04:23:51.068Z,21.0100
2023-01-19T04:24:53.362Z,20.9000
2023-01-19T04:25:53.500Z,20.7800
2023-01-19T04:26:55.763Z,20.8600
2023-01-19T04:27:57.984Z,20.8500
2023-01-19T04:29:00.295Z,20.8700
2023-01-19T04:30:00.443Z,20.8600
2023-01-19T04:31:02.837Z,20.9800
2023-01-19T04:32:05.056Z,21.0200
2023-01-19T04:33:07.336Z,20.9100
2023-01-19T04:34:07.457Z,20.8600
2023-01-19T04:35:09.848Z,20.7800
2023-01-19T04:36:12.301Z,20.8700
2023-01-19T04:37:12.405Z,20.9400
2023-01-19T04:38:14.758Z,20.8100
2023-01-19T04:39:17.122Z,20.8000
2023-01-19T04:40:17.334Z,20.7900
2023-01-19T04:41:19.777Z,20.8300
2023-01-19T04:42:22.091Z,20.9300
2023-01-19T04:43:22.319Z,20.8300
2023-01-19T04:44:24.557Z,20.8200
2023-01-19T04:45:26.869Z,20.8700
2023-01-19T04:46:29.198Z,20.9000
2023-01-19T04:47:29.462Z,20.7800
2023-01-19T04:48:31.588Z,20.7600
2023-01-19T04:49:33.943Z,20.6400
2023-01-19T04:50:36.233Z,20.6100
2023-01-19T04:51:38.609Z,20.6000
2023-01-19T04:52:40.892Z,20.6500
2023-01-19T04:53:41.164Z,20.6400
2023-01-19T04:54:43.528Z,20.5100
2023-01-19T04:55:45.936Z,20.4700
2023-01-19T04:56:46.168Z,20.4900
2023-01-19T04:57:48.547Z,20.4800
2023-01-19T04:58:50.964Z,20.4900
2023-01-19T04:59:51.178Z,20.5600
2023-01-19T05:00:53.657Z,20.5100
2023-01-19T05:01:56.157Z,20.6200
2023-01-19T05:02:56.266Z,20.6400
2023-01-19T05:03:58.555Z,20.6300
2023-01-19T05:05:00.939Z,20.6600
2023-01-19T05:06:03.271Z,20.6900
2023-01-19T05:07:05.715Z,20.6300
2023-01-19T05:08:07.879Z,20.6400
2023-01-19T05:09:07.999Z,20.5900
2023-01-19T05:10:10.300Z,20.6900
2023-01-19T05:11:12.617Z,20.7100
2023-01-19T05:12:14.949Z,20.5900
2023-01-19T05:13:17.271Z,20.5100
2023-01-19T05:14:19.610Z,20.6700
2023-01-19T05:15:19.790Z,20.6700
2023-01-19T05:16:22.160Z,20.7500
2023-01-19T05:17:24.446Z,20.7200
2023-01-19T05:18:26.770Z,20.8000
2023-01-19T05:19:26.923Z,20.8000
2023-01-19T05:20:29.276Z,20.7500
2023-01-19T05:21:31.589Z,20.7000
2023-01-19T05:22:31.824Z,20.8200
2023-01-19T05:23:34.215Z,20.8100
2023-01-19T05:24:36.516Z,20.8600
2023-01-19T05:25:36.712Z,20.8600
2023-01-19T05:26:39.065Z,20.9000
2023-01-19T05:27:41.448Z,20.8200
2023-01-19T05:28:43.755Z,20.7900
2023-01-19T05:29:46.055Z,20.8100
2023-01-19T05:30:48.427Z,20.8500
2023-01-19T05:31:48.686Z,20.8200
2023-01-19T05:32:50.951Z,20.7800
2023-01-19T05:33:53.271Z,20.8500
2023-01-19T05:34:55.580Z,20.8900
2023-01-19T05:35:57.916Z,20.8900
2023-01-19T05:37:00.266Z,20.9000
2023-01-19T05:38:02.650Z,20.8600
2023-01-19T05:39:04.973Z,20.9600
2023-01-19T05:40:07.340Z,21.0100
2023-01-19T05:41:07.562Z,21.0300
2023-01-19T05:42:09.942Z,20.9800
2023-01-19T05:43:12.347Z,20.9100
2023-01-19T05:44:12.591Z,20.8800
2023-01-19T05:45:14.967Z,20.8700
2023-01-19T05:46:17.448Z,20.8100
2023-01-19T05:48:33.993Z,21.1900
2023-01-19T05:50:35.417Z,21.3200
2023-01-19T05:51:37.755Z,21.3600
2023-01-19T05:52:40.083Z,21.4100
2023-01-19T05:53:42.467Z,21.4300
2023-01-19T05:54:42.657Z,21.4900
2023-01-19T05:55:45.032Z,21.4600
2023-01-19T05:56:47.393Z,21.4000
2023-01-19T05:57:49.713Z,21.4200
2023-01-19T05:58:52.125Z,21.2700
2023-01-19T05:59:52.294Z,21.2100
2023-01-19T06:00:54.671Z,21.1400
2023-01-19T06:01:56.972Z,21.1300
2023-01-19T06:02:59.772Z,21.1700
2023-01-19T06:04:01.688Z,21.1700
2023-01-19T06:05:01.833Z,21.2500
2023-01-19T06:06:04.195Z,21.2700
2023-01-19T06:07:06.535Z,21.1800
2023-01-19T06:08:08.856Z,21.1300
2023-01-19T06:09:11.240Z,21.1800
2023-01-19T06:10:11.398Z,21.2800
2023-01-19T06:11:13.734Z,21.3300
2023-01-19T06:12:16.073Z,21.3300
2023-01-19T06:13:18.353Z,21.3300
2023-01-19T06:14:20.673Z,21.2900
2023-01-19T06:15:23.029Z,21.3100
2023-01-19T06:16:23.179Z,21.3500
2023-01-19T06:17:25.488Z,21.3900
2023-01-19T06:18:27.844Z,21.3400
2023-01-19T06:19:30.189Z,21.2200
2023-01-19T06:20:32.493Z,21.2900
2023-01-19T06:21:34.855Z,21.3500
2023-01-19T06:22:35.007Z,19.9600
2023-01-19T06:23:37.375Z,18.2200
2023-01-19T06:24:39.828Z,17.0000
2023-01-19T06:25:40.105Z,16.9800
2023-01-19T06:26:40.425Z,16.4400
2023-01-19T06:27:42.930Z,16.3400
2023-01-19T06:28:45.435Z,16.5600
2023-01-19T06:29:47.933Z,17.1600
2023-01-19T06:30:50.390Z,17.7200
2023-01-19T06:32:46.822Z,18.5100
2023-01-19T06:33:49.186Z,18.8600
2023-01-19T06:34:49.492Z,19.1600
2023-01-19T06:35:50.701Z,19.3900
2023-01-19T06:36:52.126Z,19.5400
2023-01-19T06:37:52.336Z,19.6600
2023-01-19T06:38:54.722Z,19.7900
2023-01-19T06:39:57.087Z,19.8900
2023-01-19T06:40:59.455Z,20.0000
2023-01-19T06:42:01.758Z,20.0800
2023-01-19T06:43:02.357Z,20.1500
2023-01-19T06:44:04.309Z,20.2000
2023-01-19T06:45:06.707Z,20.2700
2023-01-19T06:46:09.130Z,20.3200
2023-01-19T06:47:15.567Z,20.3900
2023-01-19T06:48:11.631Z,20.4100
2023-01-19T06:49:14.009Z,20.4400
2023-01-19T06:50:16.382Z,20.4100
2023-01-19T06:51:18.687Z,20.4100
2023-01-19T06:52:18.934Z,20.4300
2023-01-19T06:53:21.324Z,20.4800
2023-01-19T06:54:23.692Z,20.5000
2023-01-19T06:55:27.890Z,20.5300
2023-01-19T06:56:28.496Z,20.5500
2023-01-19T06:57:28.791Z,20.5700
2023-01-19T06:58:31.136Z,20.6000
2023-01-19T06:59:33.476Z,20.6100
2023-01-19T07:00:35.816Z,20.6300
2023-01-19T07:01:36.099Z,20.6500
2023-01-19T07:02:38.524Z,20.6800
2023-01-19T07:03:40.759Z,20.6700
2023-01-19T07:04:43.103Z,20.6600
2023-01-19T07:05:45.445Z,20.6900
2023-01-19T07:06:45.576Z,20.7000
2023-01-19T07:07:47.969Z,20.7100
2023-01-19T07:08:50.299Z,20.7900
2023-01-19T07:09:54.115Z,20.7800
2023-01-19T07:11:26.650Z,20.8100
2023-01-19T07:11:55.262Z,20.8100
2023-01-19T07:12:57.612Z,20.8500
2023-01-19T07:13:59.996Z,20.9100
2023-01-19T07:15:00.188Z,21.0400
2023-01-19T07:16:02.556Z,21.1000
2023-01-19T07:17:04.843Z,21.0100
2023-01-19T07:18:07.169Z,20.9900
2023-01-19T07:19:07.372Z,20.9600
2023-01-19T07:20:09.735Z,20.9800
2023-01-19T07:21:12.144Z,20.9700
2023-01-19T07:22:14.485Z,20.9900
2023-01-19T07:23:14.731Z,20.8900
2023-01-19T07:24:17.091Z,20.9200
2023-01-19T07:25:19.443Z,20.9300
2023-01-19T07:26:22.152Z,20.8700
2023-01-19T07:27:24.144Z,20.8200
2023-01-19T07:28:24.357Z,20.9300
2023-01-19T07:29:26.696Z,20.9100
2023-01-19T07:30:29.178Z,20.8700
2023-01-19T07:31:31.593Z,21.0100
2023-01-19T07:32:33.709Z,20.9800
2023-01-19T07:33:33.892Z,21.0300
2023-01-19T07:34:36.250Z,21.1300
2023-01-19T07:35:38.622Z,21.3000
2023-01-19T07:36:40.969Z,21.4600
2023-01-19T07:37:43.275Z,21.4900
2023-01-19T07:38:43.600Z,21.5100
2023-01-19T07:39:45.784Z,21.5100
2023-01-19T07:40:48.101Z,21.5200
2023-01-19T07:41:50.384Z,21.5200
2023-01-19T07:42:52.607Z,21.5000
2023-01-19T07:43:54.828Z,21.5000
2023-01-19T07:44:57.057Z,21.5100
2023-01-19T07:45:59.323Z,21.5400
2023-01-19T07:47:01.609Z,21.5600
2023-01-19T07:48:01.685Z,21.5800
2023-01-19T07:49:03.975Z,21.5900
2023-01-19T07:50:06.227Z,21.6200
2023-01-19T07:51:10.424Z,21.6100
2023-01-19T07:52:10.748Z,21.6000
2023-01-19T07:53:13.012Z,21.6000
2023-01-19T07:54:13.229Z,21.6200
2023-01-19T07:55:15.555Z,21.6000
2023-01-19T07:56:17.925Z,21.6000
2023-01-19T07:57:20.334Z,21.6000
2023-01-19T07:58:20.534Z,21.6200
2023-01-19T07:59:22.901Z,21.6300
2023-01-19T08:00:25.282Z,21.6300
2023-01-19T08:01:27.801Z,21.6400
2023-01-19T08:02:30.029Z,21.6700
2023-01-19T08:03:30.211Z,21.6400
2023-01-19T08:04:32.691Z,21.6300
2023-01-19T08:05:34.983Z,21.5900
2023-01-19T08:06:37.353Z,21.5600
2023-01-19T08:07:39.786Z,21.5500
2023-01-19T08:08:39.972Z,21.5400
2023-01-19T08:09:42.354Z,21.5100
2023-01-19T08:10:44.687Z,21.5000
2023-01-19T08:11:47.083Z,21.5100
2023-01-19T08:12:47.322Z,21.5300
2023-01-19T08:13:49.705Z,21.5300
2023-01-19T08:14:52.041Z,21.5400
2023-01-19T08:15:54.505Z,21.5800
2023-01-19T08:16:56.687Z,21.5800
2023-01-19T08:17:56.891Z,21.5600
2023-01-19T08:18:59.200Z,21.5500
2023-01-19T08:20:01.569Z,21.5300
2023-01-19T08:21:03.833Z,21.5600
2023-01-19T08:22:06.116Z,21.5700
2023-01-19T08:23:08.442Z,21.5700
2023-01-19T08:24:08.594Z,21.5500
2023-01-19T08:25:10.852Z,21.5200
2023-01-19T08:26:13.147Z,21.5200
2023-01-19T08:27:15.480Z,21.4100
2023-01-19T08:28:17.988Z,21.1400
2023-01-19T08:29:20.231Z,20.8900
2023-01-19T08:30:22.614Z,20.6800
2023-01-19T08:31:25.245Z,20.6800
2023-01-19T08:32:27.473Z,20.7500
2023-01-19T08:33:27.631Z,20.8400
2023-01-19T08:34:29.991Z,20.9400
2023-01-19T08:35:32.401Z,21.0300
2023-01-19T08:36:34.743Z,21.1100
2023-01-19T08:37:37.078Z,21.1700
2023-01-19T08:38:37.362Z,21.2300
2023-01-19T08:39:39.710Z,21.2900
2023-01-19T08:40:42.153Z,21.3300
2023-01-19T08:41:44.426Z,21.3600
2023-01-19T08:42:44.658Z,21.3800
2023-01-19T08:43:47.106Z,21.4100
2023-01-19T08:44:57.686Z,21.4300
2023-01-19T08:45:51.928Z,21.4400
2023-01-19T08:46:52.155Z,21.4800
2023-01-19T08:47:54.501Z,21.5000
2023-01-19T08:48:56.876Z,21.5300
2023-01-19T08:49:59.233Z,21.5400
2023-01-19T08:51:01.607Z,21.5600
2023-01-19T08:52:01.883Z,21.5800
2023-01-19T08:53:04.278Z,21.6000
2023-01-19T08:54:06.751Z,21.6000
2023-01-19T08:55:09.113Z,21.6000
2023-01-19T08:56:09.411Z,21.6200
2023-01-19T08:57:11.785Z,21.6400
2023-01-19T08:58:14.192Z,21.6600
2023-01-19T08:59:14.587Z,21.6800
2023-01-19T09:00:16.870Z,21.6900
2023-01-19T09:01:19.392Z,21.7000
2023-01-19T09:02:21.858Z,21.7200
2023-01-19T09:03:21.988Z,21.7300
2023-01-19T09:04:24.301Z,21.7500
2023-01-19T09:05:26.560Z,21.7600
2023-01-19T09:06:28.867Z,21.7700
2023-01-19T09:07:32.586Z,21.7700
2023-01-19T09:08:31.293Z,21.7800
2023-01-19T09:09:33.621Z,21.7900
2023-01-19T09:10:36.068Z,21.7800
2023-01-19T09:11:38.289Z,21.7800
2023-01-19T09:12:40.565Z,21.8000
2023-01-19T09:13:42.912Z,21.8000
2023-01-19T09:14:43.193Z,21.8100
2023-01-19T09:15:45.602Z,21.8000
2023-01-19T09:16:47.988Z,21.8200
2023-01-19T09:17:50.383Z,21.8200
2023-01-19T09:18:50.646Z,21.8200
2023-01-19T09:19:53.071Z,21.8400
2023-01-19T09:20:55.410Z,21.8400
2023-01-19T09:21:57.770Z,21.8500
2023-01-19T09:22:58.024Z,21.8500
2023-01-19T09:24:00.428Z,21.8500
2023-01-19T09:25:02.889Z,21.8700
2023-01-19T09:26:05.252Z,21.8800
2023-01-19T09:27:05.522Z,21.8100
2023-01-19T09:28:07.815Z,21.7700
2023-01-19T09:29:10.198Z,21.7700
2023-01-19T09:30:12.675Z,21.7800
2023-01-19T09:31:15.091Z,21.8000
2023-01-19T09:32:15.091Z,21.8100
2023-01-19T09:32:59.410Z,21.7400
2023-01-19T09:33:58.360Z,21.7800
2023-01-19T09:35:00.654Z,21.8000
2023-01-19T09:36:02.955Z,21.8000
2023-01-19T09:37:05.278Z,21.8000
2023-01-19T09:38:07.665Z,21.8200
2023-01-19T09:39:07.839Z,21.8600
2023-01-19T09:40:10.186Z,21.8900
2023-01-19T09:41:12.567Z,21.9000
2023-01-19T09:42:14.893Z,21.9100
2023-01-19T09:43:17.244Z,21.9300
2023-01-19T09:44:17.425Z,21.9500
2023-01-19T09:45:19.817Z,21.9700
2023-01-19T09:46:22.206Z,21.9700
2023-01-19T09:47:24.513Z,21.9700
2023-01-19T09:48:26.857Z,21.9500
2023-01-19T09:49:27.077Z,21.9600
2023-01-19T09:50:29.416Z,21.9800
2023-01-19T09:51:31.831Z,22.0000
2023-01-19T09:52:34.166Z,22.0100
2023-01-19T09:53:34.401Z,22.0300
2023-01-19T09:54:36.776Z,22.0400
2023-01-19T09:55:39.130Z,22.0300
2023-01-19T09:56:41.530Z,22.0100
2023-01-19T09:57:43.937Z,22.0200
2023-01-19T09:58:44.043Z,22.0300
2023-01-19T09:59:46.346Z,22.0400
2023-01-19T10:00:48.818Z,22.0300
2023-01-19T10:01:51.066Z,22.0100
2023-01-19T10:02:53.373Z,22.0300
2023-01-19T10:03:55.592Z,22.0400
2023-01-19T10:04:55.736Z,22.0400
2023-01-19T10:05:58.046Z,22.0800
2023-01-19T10:07:00.402Z,22.0700
2023-01-19T10:08:03.068Z,22.0500
2023-01-19T10:09:04.971Z,22.0800
2023-01-19T10:10:05.115Z,22.1100
2023-01-19T10:11:07.352Z,22.1000
2023-01-19T10:12:09.664Z,22.1100
2023-01-19T10:13:11.978Z,22.1400
2023-01-19T10:14:14.246Z,22.1500
2023-01-19T10:15:16.518Z,22.1300
2023-01-19T10:16:18.848Z,22.1600
2023-01-19T10:17:21.153Z,22.1500
2023-01-19T10:18:21.278Z,22.1600
2023-01-19T10:19:23.579Z,22.2000
2023-01-19T10:20:25.903Z,22.2300
2023-01-19T10:21:28.237Z,22.2100
2023-01-19T10:22:30.607Z,22.2700
2023-01-19T10:23:30.729Z,22.3100
2023-01-19T10:24:33.011Z,22.3600
2023-01-19T10:25:35.376Z,22.3600
2023-01-19T10:26:37.617Z,22.3500
2023-01-19T10:27:39.988Z,22.2200
2023-01-19T10:28:42.294Z,22.1300
2023-01-19T10:29:44.590Z,22.1500
2023-01-19T10:30:44.829Z,22.1500
2023-01-19T10:31:47.120Z,22.2200
2023-01-19T10:32:49.495Z,22.2900
2023-01-19T10:33:51.649Z,22.3500
2023-01-19T10:34:51.897Z,22.3800
2023-01-19T10:35:54.215Z,22.4200
2023-01-19T10:36:54.332Z,22.4500
2023-01-19T10:37:56.668Z,22.4900
2023-01-19T10:38:58.946Z,22.4400
2023-01-19T10:40:01.287Z,22.4500
2023-01-19T10:41:03.593Z,22.4100
2023-01-19T10:42:05.792Z,22.3800
2023-01-19T10:43:06.044Z,22.3400
2023-01-19T10:44:08.349Z,22.3100
2023-01-19T10:45:10.582Z,22.2700
2023-01-19T10:46:13.012Z,22.2300
2023-01-19T10:47:15.234Z,22.2400
2023-01-19T10:48:15.600Z,22.2500
2023-01-19T10:49:17.724Z,22.2200
2023-01-19T10:50:20.024Z,22.2000
2023-01-19T10:51:22.347Z,22.1900
2023-01-19T10:52:24.578Z,22.1700
2023-01-19T10:53:27.051Z,22.1900
2023-01-19T10:54:29.194Z,22.2100
2023-01-19T10:55:29.354Z,22.2300
2023-01-19T10:56:31.672Z,22.2400
2023-01-19T10:57:34.010Z,22.2300
2023-01-19T10:58:36.353Z,22.2600
2023-01-19T10:59:38.691Z,22.2700
2023-01-19T11:00:29.830Z,22.1900
2023-01-19T11:01:30.605Z,22.2600
2023-01-19T11:02:32.972Z,22.2700
2023-01-19T11:03:35.028Z,22.2700
2023-01-19T11:04:37.396Z,22.3100
2023-01-19T11:05:39.550Z,22.3300
2023-01-19T11:06:39.682Z,22.3400
2023-01-19T11:07:41.982Z,22.3500
2023-01-19T11:08:44.224Z,22.3600
2023-01-19T11:09:46.532Z,22.4000
2023-01-19T11:10:49.325Z,22.3800
2023-01-19T11:11:50.967Z,22.3200
2023-01-19T11:12:53.201Z,22.3000
2023-01-19T11:13:55.440Z,22.3500
2023-01-19T11:14:57.809Z,22.3800
2023-01-19T11:15:57.915Z,22.3700
2023-01-19T11:17:00.229Z,22.3800
2023-01-19T11:18:02.495Z,22.3800
2023-01-19T11:19:04.802Z,22.4300
2023-01-19T11:20:07.244Z,22.4600
2023-01-19T11:21:09.446Z,22.4500
2023-01-19T11:22:09.640Z,22.4600
2023-01-19T11:23:11.958Z,22.4800
2023-01-19T11:24:14.245Z,22.4800
2023-01-19T11:25:16.583Z,22.4800
2023-01-19T11:26:16.756Z,22.5100
2023-01-19T11:27:19.095Z,22.5200
2023-01-19T11:28:19.270Z,22.5600
2023-01-19T11:29:21.548Z,22.5600
2023-01-19T11:30:23.903Z,22.5700
2023-01-19T11:31:26.227Z,22.6000
2023-01-19T11:32:28.505Z,22.6200
2023-01-19T11:33:30.886Z,22.6100
2023-01-19T11:34:31.122Z,22.6300
2023-01-19T11:35:33.606Z,22.6300
2023-01-19T11:36:35.848Z,22.6700
2023-01-19T11:37:38.144Z,22.7000
2023-01-19T11:38:38.362Z,22.7100
2023-01-19T11:39:40.746Z,22.7300
2023-01-19T11:40:43.158Z,22.7600
2023-01-19T11:41:45.532Z,22.7600
2023-01-19T11:42:45.771Z,22.7500
2023-01-19T11:43:49.503Z,22.7600
2023-01-19T11:44:50.546Z,22.7700
2023-01-19T11:45:53.082Z,22.8000
2023-01-19T11:46:53.144Z,22.8300
2023-01-19T11:47:55.509Z,22.8300
2023-01-19T11:48:57.869Z,22.8400
2023-01-19T11:50:00.202Z,22.8700
2023-01-19T11:51:02.545Z,22.9000
2023-01-19T11:52:04.885Z,22.9200
2023-01-19T11:53:05.105Z,22.9500
2023-01-19T11:54:07.481Z,22.9400
2023-01-19T11:55:09.867Z,22.9400
2023-01-19T11:56:12.288Z,22.9400
2023-01-19T11:57:12.467Z,22.9800
2023-01-19T11:58:14.815Z,23.0200
2023-01-19T11:59:17.192Z,23.0200
2023-01-19T12:00:19.577Z,23.0200
2023-01-19T12:01:19.926Z,23.0300
2023-01-19T12:02:22.265Z,23.0500
2023-01-19T12:03:22.445Z,23.0600
2023-01-19T12:04:24.787Z,23.0900
2023-01-19T12:05:27.122Z,23.1100
2023-01-19T12:06:29.508Z,23.1200
2023-01-19T12:07:31.821Z,23.1600
2023-01-19T12:08:32.021Z,23.1500
2023-01-19T12:09:34.391Z,23.1600
2023-01-19T12:10:36.782Z,23.1900
2023-01-19T12:11:39.214Z,23.2000
2023-01-19T12:12:43.171Z,23.1200
2023-01-19T12:13:46.025Z,23.1800
2023-01-19T12:14:48.305Z,23.2200
2023-01-19T12:15:48.437Z,23.2400
2023-01-19T12:16:50.860Z,23.2200
2023-01-19T12:17:53.049Z,23.2200
2023-01-19T12:18:55.365Z,23.2100
2023-01-19T12:19:57.689Z,23.2100
2023-01-19T12:21:01.898Z,23.2300
2023-01-19T12:22:00.181Z,23.2400
2023-01-19T12:23:02.483Z,23.2500
2023-01-19T12:24:04.880Z,23.2500
2023-01-19T12:25:07.154Z,23.2500
2023-01-19T12:26:09.459Z,23.2700
2023-01-19T12:27:11.894Z,23.2800
2023-01-19T12:28:11.922Z,23.3000
2023-01-19T12:29:14.243Z,23.3200
2023-01-19T12:30:16.547Z,23.3300
2023-01-19T12:31:19.006Z,23.3200
2023-01-19T12:32:21.165Z,23.3300
2023-01-19T12:33:23.448Z,23.3400
2023-01-19T12:34:23.638Z,23.3400
2023-01-19T12:35:25.907Z,23.3500